sensor_id;sensor_type;location;lat;lon;timestamp;P1;durP1;ratioP1;P2;durP2;ratioP2
22268;SDS011;11303;50.772;19.670;2022-10-16T00:01:29;30.08;;;18.00;;
22268;SDS011;11303;50.772;19.670;2022-10-16T00:03:31;29.17;;;17.70;;
22268;SDS011;11303;50.772;19.670;2022-10-16T00:05:33;30.48;;;18.60;;
22268;SDS011;11303;50.772;19.670;2022-10-16T00:07:39;35.33;;;19.05;;
22268;SDS011;11303;50.772;19.670;2022-10-16T00:09:41;30.23;;;18.45;;
22268;SDS011;11303;50.772;19.670;2022-10-16T00:11:42;31.05;;;19.00;;
22268;SDS011;11303;50.772;19.670;2022-10-16T00:13:45;32.33;;;19.52;;
22268;SDS011;11303;50.772;19.670;2022-10-16T00:15:47;34.17;;;19.05;;
22268;SDS011;11303;50.772;19.670;2022-10-16T00:17:49;36.60;;;19.70;;
22268;SDS011;11303;50.772;19.670;2022-10-16T00:19:50;36.05;;;20.77;;
22268;SDS011;11303;50.772;19.670;2022-10-16T00:21:52;32.75;;;19.80;;
22268;SDS011;11303;50.772;19.670;2022-10-16T00:23:55;38.35;;;21.42;;
22268;SDS011;11303;50.772;19.670;2022-10-16T00:26:02;33.35;;;19.48;;
22268;SDS011;11303;50.772;19.670;2022-10-16T00:28:06;33.67;;;19.98;;
22268;SDS011;11303;50.772;19.670;2022-10-16T00:30:07;30.30;;;18.83;;
22268;SDS011;11303;50.772;19.670;2022-10-16T00:32:09;31.55;;;18.63;;
22268;SDS011;11303;50.772;19.670;2022-10-16T00:34:11;28.58;;;18.65;;
22268;SDS011;11303;50.772;19.670;2022-10-16T00:36:13;33.78;;;17.98;;
22268;SDS011;11303;50.772;19.670;2022-10-16T00:38:16;29.92;;;18.88;;
22268;SDS011;11303;50.772;19.670;2022-10-16T00:40:18;29.98;;;18.48;;
22268;SDS011;11303;50.772;19.670;2022-10-16T00:42:19;33.13;;;17.70;;
22268;SDS011;11303;50.772;19.670;2022-10-16T00:46:53;31.65;;;18.85;;
22268;SDS011;11303;50.772;19.670;2022-10-16T00:51:07;32.88;;;18.42;;
22268;SDS011;11303;50.772;19.670;2022-10-16T00:53:09;31.02;;;18.88;;
22268;SDS011;11303;50.772;19.670;2022-10-16T00:55:12;27.98;;;18.30;;
22268;SDS011;11303;50.772;19.670;2022-10-16T00:57:14;27.73;;;17.77;;
22268;SDS011;11303;50.772;19.670;2022-10-16T00:59:18;30.17;;;19.02;;
22268;SDS011;11303;50.772;19.670;2022-10-16T01:01:24;33.22;;;18.90;;
22268;SDS011;11303;50.772;19.670;2022-10-16T01:03:32;34.45;;;19.02;;
22268;SDS011;11303;50.772;19.670;2022-10-16T01:05:41;34.47;;;19.95;;
22268;SDS011;11303;50.772;19.670;2022-10-16T01:14:44;32.90;;;20.67;;
22268;SDS011;11303;50.772;19.670;2022-10-16T01:16:49;30.50;;;20.15;;
22268;SDS011;11303;50.772;19.670;2022-10-16T01:19:01;33.05;;;19.92;;
22268;SDS011;11303;50.772;19.670;2022-10-16T01:21:55;33.28;;;20.20;;
22268;SDS011;11303;50.772;19.670;2022-10-16T01:23:53;35.42;;;21.13;;
22268;SDS011;11303;50.772;19.670;2022-10-16T01:26:13;32.85;;;22.40;;
22268;SDS011;11303;50.772;19.670;2022-10-16T01:28:29;34.90;;;22.83;;
22268;SDS011;11303;50.772;19.670;2022-10-16T01:30:37;31.27;;;22.38;;
22268;SDS011;11303;50.772;19.670;2022-10-16T01:32:41;34.95;;;23.00;;
22268;SDS011;11303;50.772;19.670;2022-10-16T01:35:09;39.63;;;24.48;;
22268;SDS011;11303;50.772;19.670;2022-10-16T01:37:14;38.92;;;24.33;;
22268;SDS011;11303;50.772;19.670;2022-10-16T01:39:20;37.28;;;23.70;;
22268;SDS011;11303;50.772;19.670;2022-10-16T01:41:24;39.38;;;24.58;;
22268;SDS011;11303;50.772;19.670;2022-10-16T01:43:33;33.67;;;23.33;;
22268;SDS011;11303;50.772;19.670;2022-10-16T01:45:37;32.75;;;23.48;;
22268;SDS011;11303;50.772;19.670;2022-10-16T01:47:39;36.50;;;23.98;;
22268;SDS011;11303;50.772;19.670;2022-10-16T01:49:42;35.97;;;23.48;;
22268;SDS011;11303;50.772;19.670;2022-10-16T01:51:46;38.50;;;24.80;;
22268;SDS011;11303;50.772;19.670;2022-10-16T01:53:53;40.33;;;25.27;;
22268;SDS011;11303;50.772;19.670;2022-10-16T01:55:58;43.05;;;25.90;;
22268;SDS011;11303;50.772;19.670;2022-10-16T01:58:03;39.63;;;26.13;;
22268;SDS011;11303;50.772;19.670;2022-10-16T02:00:09;41.72;;;26.17;;
22268;SDS011;11303;50.772;19.670;2022-10-16T02:02:14;38.42;;;26.10;;
22268;SDS011;11303;50.772;19.670;2022-10-16T02:04:26;40.92;;;26.25;;
22268;SDS011;11303;50.772;19.670;2022-10-16T02:06:30;38.80;;;25.38;;
22268;SDS011;11303;50.772;19.670;2022-10-16T02:08:33;42.35;;;25.65;;
22268;SDS011;11303;50.772;19.670;2022-10-16T02:10:35;43.08;;;26.17;;
22268;SDS011;11303;50.772;19.670;2022-10-16T02:12:39;41.65;;;25.70;;
22268;SDS011;11303;50.772;19.670;2022-10-16T02:14:43;37.80;;;26.40;;
22268;SDS011;11303;50.772;19.670;2022-10-16T02:16:46;41.58;;;26.08;;
22268;SDS011;11303;50.772;19.670;2022-10-16T02:18:48;40.67;;;26.83;;
22268;SDS011;11303;50.772;19.670;2022-10-16T02:20:59;46.55;;;27.40;;
22268;SDS011;11303;50.772;19.670;2022-10-16T02:23:05;43.10;;;27.75;;
22268;SDS011;11303;50.772;19.670;2022-10-16T02:29:42;47.08;;;27.80;;
22268;SDS011;11303;50.772;19.670;2022-10-16T02:31:53;53.55;;;31.48;;
22268;SDS011;11303;50.772;19.670;2022-10-16T02:33:58;63.55;;;36.13;;
22268;SDS011;11303;50.772;19.670;2022-10-16T02:36:00;83.95;;;42.40;;
22268;SDS011;11303;50.772;19.670;2022-10-16T02:38:02;55.50;;;32.90;;
22268;SDS011;11303;50.772;19.670;2022-10-16T02:40:05;46.33;;;28.98;;
22268;SDS011;11303;50.772;19.670;2022-10-16T02:42:12;41.10;;;27.08;;
22268;SDS011;11303;50.772;19.670;2022-10-16T02:44:14;42.83;;;27.55;;
22268;SDS011;11303;50.772;19.670;2022-10-16T02:46:16;48.60;;;28.45;;
22268;SDS011;11303;50.772;19.670;2022-10-16T02:48:18;40.45;;;27.45;;
22268;SDS011;11303;50.772;19.670;2022-10-16T02:50:20;60.00;;;27.80;;
22268;SDS011;11303;50.772;19.670;2022-10-16T02:52:22;37.20;;;26.75;;
22268;SDS011;11303;50.772;19.670;2022-10-16T02:54:24;47.20;;;29.10;;
22268;SDS011;11303;50.772;19.670;2022-10-16T02:56:25;52.92;;;31.80;;
22268;SDS011;11303;50.772;19.670;2022-10-16T02:58:27;54.22;;;31.75;;
22268;SDS011;11303;50.772;19.670;2022-10-16T03:00:28;51.05;;;33.58;;
22268;SDS011;11303;50.772;19.670;2022-10-16T03:02:30;47.13;;;29.25;;
22268;SDS011;11303;50.772;19.670;2022-10-16T03:04:31;46.58;;;27.35;;
22268;SDS011;11303;50.772;19.670;2022-10-16T03:06:33;42.72;;;26.77;;
22268;SDS011;11303;50.772;19.670;2022-10-16T03:08:35;39.42;;;25.90;;
22268;SDS011;11303;50.772;19.670;2022-10-16T03:10:37;41.38;;;27.20;;
22268;SDS011;11303;50.772;19.670;2022-10-16T03:12:38;43.50;;;26.42;;
22268;SDS011;11303;50.772;19.670;2022-10-16T03:14:40;37.92;;;27.17;;
22268;SDS011;11303;50.772;19.670;2022-10-16T03:16:41;40.28;;;26.02;;
22268;SDS011;11303;50.772;19.670;2022-10-16T03:18:43;39.60;;;25.27;;
22268;SDS011;11303;50.772;19.670;2022-10-16T03:20:44;40.90;;;24.65;;
22268;SDS011;11303;50.772;19.670;2022-10-16T03:22:46;39.13;;;26.02;;
22268;SDS011;11303;50.772;19.670;2022-10-16T03:24:47;40.97;;;24.60;;
22268;SDS011;11303;50.772;19.670;2022-10-16T03:26:49;39.47;;;24.65;;
22268;SDS011;11303;50.772;19.670;2022-10-16T03:28:50;40.75;;;24.65;;
22268;SDS011;11303;50.772;19.670;2022-10-16T03:30:52;41.13;;;25.15;;
22268;SDS011;11303;50.772;19.670;2022-10-16T03:32:53;44.92;;;27.92;;
22268;SDS011;11303;50.772;19.670;2022-10-16T03:34:55;47.70;;;26.42;;
22268;SDS011;11303;50.772;19.670;2022-10-16T03:36:58;40.42;;;27.48;;
22268;SDS011;11303;50.772;19.670;2022-10-16T03:38:59;43.83;;;27.00;;
22268;SDS011;11303;50.772;19.670;2022-10-16T03:41:01;47.15;;;27.50;;
22268;SDS011;11303;50.772;19.670;2022-10-16T03:43:02;41.28;;;26.30;;
22268;SDS011;11303;50.772;19.670;2022-10-16T03:45:04;45.72;;;26.20;;
22268;SDS011;11303;50.772;19.670;2022-10-16T03:47:06;38.05;;;25.17;;
22268;SDS011;11303;50.772;19.670;2022-10-16T03:49:07;37.70;;;25.65;;
22268;SDS011;11303;50.772;19.670;2022-10-16T03:51:10;45.05;;;25.98;;
22268;SDS011;11303;50.772;19.670;2022-10-16T03:53:11;36.95;;;24.25;;
22268;SDS011;11303;50.772;19.670;2022-10-16T03:55:13;40.95;;;23.80;;
22268;SDS011;11303;50.772;19.670;2022-10-16T03:57:14;42.25;;;25.08;;
22268;SDS011;11303;50.772;19.670;2022-10-16T03:59:16;38.53;;;22.98;;
22268;SDS011;11303;50.772;19.670;2022-10-16T04:01:17;41.67;;;25.38;;
22268;SDS011;11303;50.772;19.670;2022-10-16T04:03:19;36.58;;;23.75;;
22268;SDS011;11303;50.772;19.670;2022-10-16T04:05:20;39.45;;;24.38;;
22268;SDS011;11303;50.772;19.670;2022-10-16T04:07:22;37.35;;;24.67;;
22268;SDS011;11303;50.772;19.670;2022-10-16T04:09:24;35.55;;;23.70;;
22268;SDS011;11303;50.772;19.670;2022-10-16T04:11:25;38.97;;;25.17;;
22268;SDS011;11303;50.772;19.670;2022-10-16T04:13:27;42.20;;;24.27;;
22268;SDS011;11303;50.772;19.670;2022-10-16T04:15:29;41.03;;;25.60;;
22268;SDS011;11303;50.772;19.670;2022-10-16T04:17:30;50.05;;;25.08;;
22268;SDS011;11303;50.772;19.670;2022-10-16T04:19:32;40.03;;;26.20;;
22268;SDS011;11303;50.772;19.670;2022-10-16T04:21:33;40.42;;;25.98;;
22268;SDS011;11303;50.772;19.670;2022-10-16T04:23:35;42.08;;;27.10;;
22268;SDS011;11303;50.772;19.670;2022-10-16T04:25:36;46.65;;;27.75;;
22268;SDS011;11303;50.772;19.670;2022-10-16T04:27:38;48.45;;;29.17;;
22268;SDS011;11303;50.772;19.670;2022-10-16T04:29:45;45.00;;;28.42;;
22268;SDS011;11303;50.772;19.670;2022-10-16T04:31:46;48.40;;;30.65;;
22268;SDS011;11303;50.772;19.670;2022-10-16T04:33:48;53.78;;;29.98;;
22268;SDS011;11303;50.772;19.670;2022-10-16T04:35:55;48.95;;;30.00;;
22268;SDS011;11303;50.772;19.670;2022-10-16T04:37:58;51.67;;;30.00;;
22268;SDS011;11303;50.772;19.670;2022-10-16T04:39:59;50.05;;;31.30;;
22268;SDS011;11303;50.772;19.670;2022-10-16T04:42:01;46.60;;;30.30;;
22268;SDS011;11303;50.772;19.670;2022-10-16T04:44:02;51.65;;;30.33;;
22268;SDS011;11303;50.772;19.670;2022-10-16T04:46:04;50.47;;;31.88;;
22268;SDS011;11303;50.772;19.670;2022-10-16T04:48:06;54.85;;;35.60;;
22268;SDS011;11303;50.772;19.670;2022-10-16T04:50:08;52.00;;;32.83;;
22268;SDS011;11303;50.772;19.670;2022-10-16T04:52:09;48.80;;;33.33;;
22268;SDS011;11303;50.772;19.670;2022-10-16T04:54:11;54.85;;;31.55;;
22268;SDS011;11303;50.772;19.670;2022-10-16T04:56:12;47.40;;;32.60;;
22268;SDS011;11303;50.772;19.670;2022-10-16T04:58:14;49.58;;;31.20;;
22268;SDS011;11303;50.772;19.670;2022-10-16T05:00:16;48.72;;;30.70;;
22268;SDS011;11303;50.772;19.670;2022-10-16T05:02:18;46.55;;;29.50;;
22268;SDS011;11303;50.772;19.670;2022-10-16T05:04:19;49.10;;;30.83;;
22268;SDS011;11303;50.772;19.670;2022-10-16T05:06:21;52.75;;;32.45;;
22268;SDS011;11303;50.772;19.670;2022-10-16T05:08:22;60.15;;;34.35;;
22268;SDS011;11303;50.772;19.670;2022-10-16T05:10:24;70.10;;;35.58;;
22268;SDS011;11303;50.772;19.670;2022-10-16T05:12:25;67.07;;;39.38;;
22268;SDS011;11303;50.772;19.670;2022-10-16T05:14:27;59.85;;;34.55;;
22268;SDS011;11303;50.772;19.670;2022-10-16T05:16:28;51.72;;;33.15;;
22268;SDS011;11303;50.772;19.670;2022-10-16T05:18:31;41.78;;;28.65;;
22268;SDS011;11303;50.772;19.670;2022-10-16T05:20:33;47.05;;;30.40;;
22268;SDS011;11303;50.772;19.670;2022-10-16T05:22:34;55.70;;;34.05;;
22268;SDS011;11303;50.772;19.670;2022-10-16T05:24:36;52.33;;;31.88;;
22268;SDS011;11303;50.772;19.670;2022-10-16T05:26:37;48.22;;;31.83;;
22268;SDS011;11303;50.772;19.670;2022-10-16T05:28:39;58.30;;;39.72;;
22268;SDS011;11303;50.772;19.670;2022-10-16T05:30:40;60.40;;;39.40;;
22268;SDS011;11303;50.772;19.670;2022-10-16T05:32:45;56.47;;;41.80;;
22268;SDS011;11303;50.772;19.670;2022-10-16T05:34:47;51.28;;;34.88;;
22268;SDS011;11303;50.772;19.670;2022-10-16T05:36:49;45.35;;;30.55;;
22268;SDS011;11303;50.772;19.670;2022-10-16T05:38:51;39.45;;;29.17;;
22268;SDS011;11303;50.772;19.670;2022-10-16T05:40:53;38.72;;;25.23;;
22268;SDS011;11303;50.772;19.670;2022-10-16T05:42:54;32.80;;;22.08;;
22268;SDS011;11303;50.772;19.670;2022-10-16T05:44:56;32.78;;;19.77;;
22268;SDS011;11303;50.772;19.670;2022-10-16T05:46:58;23.17;;;17.17;;
22268;SDS011;11303;50.772;19.670;2022-10-16T05:49:00;24.60;;;17.60;;
22268;SDS011;11303;50.772;19.670;2022-10-16T05:51:05;25.20;;;16.88;;
22268;SDS011;11303;50.772;19.670;2022-10-16T05:53:10;28.23;;;17.35;;
22268;SDS011;11303;50.772;19.670;2022-10-16T05:55:12;30.40;;;17.92;;
22268;SDS011;11303;50.772;19.670;2022-10-16T05:57:13;31.08;;;19.73;;
22268;SDS011;11303;50.772;19.670;2022-10-16T05:59:15;24.05;;;16.85;;
22268;SDS011;11303;50.772;19.670;2022-10-16T06:01:18;29.85;;;19.23;;
22268;SDS011;11303;50.772;19.670;2022-10-16T06:03:20;27.17;;;17.70;;
22268;SDS011;11303;50.772;19.670;2022-10-16T06:05:22;30.65;;;19.15;;
22268;SDS011;11303;50.772;19.670;2022-10-16T06:07:23;25.73;;;17.77;;
22268;SDS011;11303;50.772;19.670;2022-10-16T06:09:25;23.55;;;16.13;;
22268;SDS011;11303;50.772;19.670;2022-10-16T06:11:28;25.75;;;17.15;;
22268;SDS011;11303;50.772;19.670;2022-10-16T06:13:31;29.63;;;17.63;;
22268;SDS011;11303;50.772;19.670;2022-10-16T06:15:33;28.15;;;17.05;;
22268;SDS011;11303;50.772;19.670;2022-10-16T06:17:34;37.85;;;21.90;;
22268;SDS011;11303;50.772;19.670;2022-10-16T06:19:36;33.28;;;18.40;;
22268;SDS011;11303;50.772;19.670;2022-10-16T06:21:37;25.48;;;18.27;;
22268;SDS011;11303;50.772;19.670;2022-10-16T06:23:39;33.95;;;20.52;;
22268;SDS011;11303;50.772;19.670;2022-10-16T06:25:40;30.75;;;21.45;;
22268;SDS011;11303;50.772;19.670;2022-10-16T06:27:42;37.25;;;22.05;;
22268;SDS011;11303;50.772;19.670;2022-10-16T06:29:43;34.05;;;21.73;;
22268;SDS011;11303;50.772;19.670;2022-10-16T06:31:46;40.42;;;23.48;;
22268;SDS011;11303;50.772;19.670;2022-10-16T06:33:51;30.02;;;19.40;;
22268;SDS011;11303;50.772;19.670;2022-10-16T06:35:52;30.95;;;19.80;;
22268;SDS011;11303;50.772;19.670;2022-10-16T06:37:54;24.20;;;16.75;;
22268;SDS011;11303;50.772;19.670;2022-10-16T06:39:55;25.15;;;16.70;;
22268;SDS011;11303;50.772;19.670;2022-10-16T06:41:57;26.52;;;16.35;;
22268;SDS011;11303;50.772;19.670;2022-10-16T06:44:06;28.92;;;17.02;;
22268;SDS011;11303;50.772;19.670;2022-10-16T06:46:09;30.40;;;19.15;;
22268;SDS011;11303;50.772;19.670;2022-10-16T06:48:12;29.98;;;18.70;;
22268;SDS011;11303;50.772;19.670;2022-10-16T06:50:13;33.15;;;19.15;;
22268;SDS011;11303;50.772;19.670;2022-10-16T06:52:15;26.50;;;17.27;;
22268;SDS011;11303;50.772;19.670;2022-10-16T06:54:17;22.40;;;15.00;;
22268;SDS011;11303;50.772;19.670;2022-10-16T06:56:23;24.20;;;14.32;;
22268;SDS011;11303;50.772;19.670;2022-10-16T06:58:26;23.98;;;14.75;;
22268;SDS011;11303;50.772;19.670;2022-10-16T07:00:28;22.38;;;15.20;;
22268;SDS011;11303;50.772;19.670;2022-10-16T07:02:29;23.33;;;15.20;;
22268;SDS011;11303;50.772;19.670;2022-10-16T07:04:30;21.85;;;13.45;;
22268;SDS011;11303;50.772;19.670;2022-10-16T07:06:32;17.98;;;12.75;;
22268;SDS011;11303;50.772;19.670;2022-10-16T07:08:36;17.80;;;11.55;;
22268;SDS011;11303;50.772;19.670;2022-10-16T07:10:39;19.02;;;12.48;;
22268;SDS011;11303;50.772;19.670;2022-10-16T07:12:41;14.93;;;10.93;;
22268;SDS011;11303;50.772;19.670;2022-10-16T07:14:42;15.93;;;11.27;;
22268;SDS011;11303;50.772;19.670;2022-10-16T07:16:44;15.77;;;10.27;;
22268;SDS011;11303;50.772;19.670;2022-10-16T07:18:46;15.18;;;10.32;;
22268;SDS011;11303;50.772;19.670;2022-10-16T07:20:49;16.35;;;11.45;;
22268;SDS011;11303;50.772;19.670;2022-10-16T07:22:51;15.88;;;10.52;;
22268;SDS011;11303;50.772;19.670;2022-10-16T07:24:53;18.50;;;11.27;;
22268;SDS011;11303;50.772;19.670;2022-10-16T07:26:54;16.55;;;10.98;;
22268;SDS011;11303;50.772;19.670;2022-10-16T07:28:56;18.80;;;10.25;;
22268;SDS011;11303;50.772;19.670;2022-10-16T07:31:05;17.45;;;10.85;;
22268;SDS011;11303;50.772;19.670;2022-10-16T07:33:09;15.70;;;10.43;;
22268;SDS011;11303;50.772;19.670;2022-10-16T07:35:10;16.30;;;10.85;;
22268;SDS011;11303;50.772;19.670;2022-10-16T07:37:12;16.35;;;10.48;;
22268;SDS011;11303;50.772;19.670;2022-10-16T07:39:13;15.77;;;10.40;;
22268;SDS011;11303;50.772;19.670;2022-10-16T07:41:16;16.05;;;11.23;;
22268;SDS011;11303;50.772;19.670;2022-10-16T07:43:20;14.88;;;10.38;;
22268;SDS011;11303;50.772;19.670;2022-10-16T07:45:21;12.73;;;9.35;;
22268;SDS011;11303;50.772;19.670;2022-10-16T07:47:23;13.85;;;9.05;;
22268;SDS011;11303;50.772;19.670;2022-10-16T07:49:25;17.30;;;8.98;;
22268;SDS011;11303;50.772;19.670;2022-10-16T07:51:27;15.43;;;10.20;;
22268;SDS011;11303;50.772;19.670;2022-10-16T07:53:28;17.92;;;9.50;;
22268;SDS011;11303;50.772;19.670;2022-10-16T07:55:30;15.57;;;9.63;;
22268;SDS011;11303;50.772;19.670;2022-10-16T07:57:32;13.00;;;8.88;;
22268;SDS011;11303;50.772;19.670;2022-10-16T07:59:34;14.45;;;9.18;;
22268;SDS011;11303;50.772;19.670;2022-10-16T08:01:35;14.02;;;8.75;;
22268;SDS011;11303;50.772;19.670;2022-10-16T08:03:37;13.15;;;8.68;;
22268;SDS011;11303;50.772;19.670;2022-10-16T08:05:38;15.48;;;8.55;;
22268;SDS011;11303;50.772;19.670;2022-10-16T08:07:40;13.30;;;9.60;;
22268;SDS011;11303;50.772;19.670;2022-10-16T08:09:41;15.43;;;8.55;;
22268;SDS011;11303;50.772;19.670;2022-10-16T08:11:43;10.80;;;8.48;;
22268;SDS011;11303;50.772;19.670;2022-10-16T08:13:44;13.13;;;8.93;;
22268;SDS011;11303;50.772;19.670;2022-10-16T08:15:46;14.80;;;9.88;;
22268;SDS011;11303;50.772;19.670;2022-10-16T08:17:54;13.98;;;8.38;;
22268;SDS011;11303;50.772;19.670;2022-10-16T08:20:00;33.25;;;8.82;;
22268;SDS011;11303;50.772;19.670;2022-10-16T08:22:01;14.18;;;9.48;;
22268;SDS011;11303;50.772;19.670;2022-10-16T08:24:03;11.10;;;7.93;;
22268;SDS011;11303;50.772;19.670;2022-10-16T08:26:05;13.95;;;9.13;;
22268;SDS011;11303;50.772;19.670;2022-10-16T08:28:08;15.65;;;10.52;;
22268;SDS011;11303;50.772;19.670;2022-10-16T08:30:11;11.60;;;7.88;;
22268;SDS011;11303;50.772;19.670;2022-10-16T08:32:13;13.00;;;8.65;;
22268;SDS011;11303;50.772;19.670;2022-10-16T08:34:15;12.15;;;8.45;;
22268;SDS011;11303;50.772;19.670;2022-10-16T08:36:16;12.32;;;8.52;;
22268;SDS011;11303;50.772;19.670;2022-10-16T08:38:18;13.90;;;8.45;;
22268;SDS011;11303;50.772;19.670;2022-10-16T08:40:20;12.57;;;8.43;;
22268;SDS011;11303;50.772;19.670;2022-10-16T08:42:33;10.65;;;7.53;;
22268;SDS011;11303;50.772;19.670;2022-10-16T08:47:35;14.80;;;8.50;;
22268;SDS011;11303;50.772;19.670;2022-10-16T08:49:42;10.43;;;7.78;;
22268;SDS011;11303;50.772;19.670;2022-10-16T08:51:48;12.43;;;7.75;;
22268;SDS011;11303;50.772;19.670;2022-10-16T08:53:53;11.27;;;7.57;;
22268;SDS011;11303;50.772;19.670;2022-10-16T08:55:57;11.30;;;8.30;;
22268;SDS011;11303;50.772;19.670;2022-10-16T08:57:59;11.32;;;7.63;;
22268;SDS011;11303;50.772;19.670;2022-10-16T09:00:08;10.80;;;7.82;;
22268;SDS011;11303;50.772;19.670;2022-10-16T09:14:01;12.32;;;8.60;;
22268;SDS011;11303;50.772;19.670;2022-10-16T09:16:22;13.20;;;7.82;;
22268;SDS011;11303;50.772;19.670;2022-10-16T09:18:31;9.20;;;7.50;;
22268;SDS011;11303;50.772;19.670;2022-10-16T09:20:49;9.40;;;7.32;;
22268;SDS011;11303;50.772;19.670;2022-10-16T09:23:13;23.35;;;13.90;;
22268;SDS011;11303;50.772;19.670;2022-10-16T09:25:26;19.00;;;11.85;;
22268;SDS011;11303;50.772;19.670;2022-10-16T09:27:28;14.73;;;9.10;;
22268;SDS011;11303;50.772;19.670;2022-10-16T09:29:30;15.40;;;8.60;;
22268;SDS011;11303;50.772;19.670;2022-10-16T09:31:31;15.68;;;10.85;;
22268;SDS011;11303;50.772;19.670;2022-10-16T09:33:34;12.38;;;9.00;;
22268;SDS011;11303;50.772;19.670;2022-10-16T09:35:40;9.25;;;6.65;;
22268;SDS011;11303;50.772;19.670;2022-10-16T09:37:45;7.60;;;6.80;;
22268;SDS011;11303;50.772;19.670;2022-10-16T09:39:51;9.55;;;6.35;;
22268;SDS011;11303;50.772;19.670;2022-10-16T09:41:53;10.27;;;6.45;;
22268;SDS011;11303;50.772;19.670;2022-10-16T09:43:57;7.07;;;6.20;;
22268;SDS011;11303;50.772;19.670;2022-10-16T09:46:01;8.45;;;6.22;;
22268;SDS011;11303;50.772;19.670;2022-10-16T09:48:11;9.65;;;6.63;;
22268;SDS011;11303;50.772;19.670;2022-10-16T09:50:21;9.60;;;6.18;;
22268;SDS011;11303;50.772;19.670;2022-10-16T09:52:26;9.35;;;6.38;;
22268;SDS011;11303;50.772;19.670;2022-10-16T09:54:27;7.90;;;6.45;;
22268;SDS011;11303;50.772;19.670;2022-10-16T09:56:30;9.02;;;6.30;;
22268;SDS011;11303;50.772;19.670;2022-10-16T09:58:37;9.57;;;5.88;;
22268;SDS011;11303;50.772;19.670;2022-10-16T10:00:41;13.13;;;6.82;;
22268;SDS011;11303;50.772;19.670;2022-10-16T10:02:43;9.45;;;6.15;;
22268;SDS011;11303;50.772;19.670;2022-10-16T10:04:52;10.35;;;7.18;;
22268;SDS011;11303;50.772;19.670;2022-10-16T10:13:50;12.27;;;7.07;;
22268;SDS011;11303;50.772;19.670;2022-10-16T10:15:51;10.90;;;6.90;;
22268;SDS011;11303;50.772;19.670;2022-10-16T10:17:55;7.82;;;6.47;;
22268;SDS011;11303;50.772;19.670;2022-10-16T10:19:58;11.00;;;6.82;;
22268;SDS011;11303;50.772;19.670;2022-10-16T10:22:12;9.95;;;6.60;;
22268;SDS011;11303;50.772;19.670;2022-10-16T10:24:19;10.40;;;7.72;;
22268;SDS011;11303;50.772;19.670;2022-10-16T10:26:21;15.82;;;10.70;;
22268;SDS011;11303;50.772;19.670;2022-10-16T10:28:42;16.45;;;11.32;;
22268;SDS011;11303;50.772;19.670;2022-10-16T10:33:44;16.48;;;9.18;;
22268;SDS011;11303;50.772;19.670;2022-10-16T10:35:54;16.42;;;9.32;;
22268;SDS011;11303;50.772;19.670;2022-10-16T10:38:06;10.40;;;7.93;;
22268;SDS011;11303;50.772;19.670;2022-10-16T10:40:39;9.98;;;7.95;;
22268;SDS011;11303;50.772;19.670;2022-10-16T10:42:49;9.65;;;7.57;;
22268;SDS011;11303;50.772;19.670;2022-10-16T10:54:41;14.40;;;8.73;;
22268;SDS011;11303;50.772;19.670;2022-10-16T10:57:03;14.15;;;9.35;;
22268;SDS011;11303;50.772;19.670;2022-10-16T11:01:50;16.70;;;9.57;;
22268;SDS011;11303;50.772;19.670;2022-10-16T11:06:19;10.98;;;8.45;;
22268;SDS011;11303;50.772;19.670;2022-10-16T11:13:00;11.35;;;7.82;;
22268;SDS011;11303;50.772;19.670;2022-10-16T11:15:14;7.68;;;6.32;;
22268;SDS011;11303;50.772;19.670;2022-10-16T11:17:19;8.18;;;6.30;;
22268;SDS011;11303;50.772;19.670;2022-10-16T11:19:31;9.60;;;6.45;;
22268;SDS011;11303;50.772;19.670;2022-10-16T11:21:46;7.30;;;6.35;;
22268;SDS011;11303;50.772;19.670;2022-10-16T11:23:57;12.85;;;6.55;;
22268;SDS011;11303;50.772;19.670;2022-10-16T11:26:08;10.05;;;7.03;;
22268;SDS011;11303;50.772;19.670;2022-10-16T11:28:19;9.02;;;6.43;;
22268;SDS011;11303;50.772;19.670;2022-10-16T11:30:31;11.18;;;6.13;;
22268;SDS011;11303;50.772;19.670;2022-10-16T11:35:11;13.60;;;8.23;;
22268;SDS011;11303;50.772;19.670;2022-10-16T11:37:22;10.10;;;7.45;;
22268;SDS011;11303;50.772;19.670;2022-10-16T11:39:27;8.57;;;6.55;;
22268;SDS011;11303;50.772;19.670;2022-10-16T11:41:34;10.55;;;6.35;;
22268;SDS011;11303;50.772;19.670;2022-10-16T11:43:41;9.45;;;6.15;;
22268;SDS011;11303;50.772;19.670;2022-10-16T11:45:51;9.05;;;6.68;;
22268;SDS011;11303;50.772;19.670;2022-10-16T11:48:07;11.48;;;6.35;;
22268;SDS011;11303;50.772;19.670;2022-10-16T11:55:38;14.00;;;6.95;;
22268;SDS011;11303;50.772;19.670;2022-10-16T11:57:48;9.75;;;6.70;;
22268;SDS011;11303;50.772;19.670;2022-10-16T11:59:56;6.70;;;5.82;;
22268;SDS011;11303;50.772;19.670;2022-10-16T12:04:52;8.13;;;6.38;;
22268;SDS011;11303;50.772;19.670;2022-10-16T12:07:05;7.88;;;6.00;;
22268;SDS011;11303;50.772;19.670;2022-10-16T12:09:33;8.63;;;6.35;;
22268;SDS011;11303;50.772;19.670;2022-10-16T12:11:37;7.93;;;6.53;;
22268;SDS011;11303;50.772;19.670;2022-10-16T12:13:40;11.00;;;6.50;;
22268;SDS011;11303;50.772;19.670;2022-10-16T12:15:42;8.52;;;6.43;;
22268;SDS011;11303;50.772;19.670;2022-10-16T12:17:59;12.20;;;6.60;;
22268;SDS011;11303;50.772;19.670;2022-10-16T12:22:18;10.18;;;6.50;;
22268;SDS011;11303;50.772;19.670;2022-10-16T12:24:21;12.38;;;7.40;;
22268;SDS011;11303;50.772;19.670;2022-10-16T12:26:38;11.15;;;7.13;;
22268;SDS011;11303;50.772;19.670;2022-10-16T12:28:45;8.52;;;7.47;;
22268;SDS011;11303;50.772;19.670;2022-10-16T12:30:53;9.82;;;6.78;;
22268;SDS011;11303;50.772;19.670;2022-10-16T12:33:01;12.02;;;7.53;;
22268;SDS011;11303;50.772;19.670;2022-10-16T12:35:16;10.32;;;6.70;;
22268;SDS011;11303;50.772;19.670;2022-10-16T12:37:25;8.77;;;6.72;;
22268;SDS011;11303;50.772;19.670;2022-10-16T12:39:29;11.85;;;7.25;;
22268;SDS011;11303;50.772;19.670;2022-10-16T12:45:58;10.02;;;7.30;;
22268;SDS011;11303;50.772;19.670;2022-10-16T12:48:01;10.57;;;7.20;;
22268;SDS011;11303;50.772;19.670;2022-10-16T12:50:23;9.20;;;6.60;;
22268;SDS011;11303;50.772;19.670;2022-10-16T12:58:51;8.70;;;6.90;;
22268;SDS011;11303;50.772;19.670;2022-10-16T13:01:12;12.23;;;7.10;;
22268;SDS011;11303;50.772;19.670;2022-10-16T13:21:50;11.63;;;7.75;;
22268;SDS011;11303;50.772;19.670;2022-10-16T13:28:42;10.77;;;7.55;;
22268;SDS011;11303;50.772;19.670;2022-10-16T13:30:50;11.43;;;8.40;;
22268;SDS011;11303;50.772;19.670;2022-10-16T13:33:01;13.02;;;7.47;;
22268;SDS011;11303;50.772;19.670;2022-10-16T13:35:17;10.63;;;8.35;;
22268;SDS011;11303;50.772;19.670;2022-10-16T13:37:22;10.52;;;7.40;;
22268;SDS011;11303;50.772;19.670;2022-10-16T13:39:29;11.13;;;7.93;;
22268;SDS011;11303;50.772;19.670;2022-10-16T13:41:31;11.88;;;7.93;;
22268;SDS011;11303;50.772;19.670;2022-10-16T13:45:41;10.52;;;7.45;;
22268;SDS011;11303;50.772;19.670;2022-10-16T13:48:05;11.95;;;8.48;;
22268;SDS011;11303;50.772;19.670;2022-10-16T13:50:14;11.20;;;8.48;;
22268;SDS011;11303;50.772;19.670;2022-10-16T13:52:18;11.77;;;8.07;;